createdAt,value
2022-09-09T00:00:28.253Z,100150.34
2022-09-09T00:03:04.475Z,100157.09
2022-09-09T00:05:43.573Z,100124.66
2022-09-09T00:08:20.815Z,100124.84
2022-09-09T00:10:55.844Z,100133.75
2022-09-09T00:13:30.331Z,100121.06
2022-09-09T00:16:04.766Z,100135.31
2022-09-09T00:18:42.137Z,100134.25
2022-09-09T00:21:16.574Z,100132.91
2022-09-09T00:23:50.782Z,100132.78
2022-09-09T00:26:24.355Z,100130.66
2022-09-09T00:29:02.741Z,100112.72
2022-09-09T00:31:33.660Z,100002.06
2022-09-09T00:34:10.347Z,99961.31
2022-09-09T00:36:40.891Z,99270.19
2022-09-09T00:39:14.498Z,99204.69
2022-09-09T00:41:56.265Z,99109.78
2022-09-09T00:44:35.491Z,99088.06
2022-09-09T00:47:15.845Z,99161.56
2022-09-09T00:50:01.299Z,99197.97
2022-09-09T00:52:41.938Z,99251.72
2022-09-09T00:55:19.727Z,99231.88
2022-09-09T00:57:53.283Z,99060.13
2022-09-09T01:00:24.761Z,99044.41
2022-09-09T01:03:11.228Z,99042.94
2022-09-09T01:05:47.147Z,99049.97
2022-09-09T01:08:35.258Z,99068.97
2022-09-09T01:11:03.768Z,99095.19
2022-09-09T01:13:34.760Z,99071.44
2022-09-09T01:16:06.188Z,99072.09
2022-09-09T01:18:39.741Z,99071.44
2022-09-09T01:21:21.360Z,98974.66
2022-09-09T01:24:16.172Z,98984.31
2022-09-09T01:26:47.052Z,98961.75
2022-09-09T01:29:17.915Z,98925.03
2022-09-09T01:31:56.347Z,98920.91
2022-09-09T01:34:26.725Z,98892.53
2022-09-09T01:37:00.398Z,98874.66
2022-09-09T01:39:28.648Z,98834.66
2022-09-09T01:41:58.696Z,98818.59
2022-09-09T01:44:28.029Z,98806.75
2022-09-09T01:46:55.817Z,98688.31
2022-09-09T01:49:24.012Z,98556.69
2022-09-09T01:51:54.049Z,98557.22
2022-09-09T01:54:23.838Z,98564.13
2022-09-09T01:57:04.836Z,98531.06
2022-09-09T01:59:51.097Z,98457.97
2022-09-09T02:02:21.284Z,98450.00
2022-09-09T02:04:51.444Z,98404.09
2022-09-09T02:07:33.761Z,98375.53
2022-09-09T02:10:07.646Z,98368.72
2022-09-09T02:12:40.504Z,98367.34
2022-09-09T02:15:19.950Z,98369.41
2022-09-09T02:17:48.920Z,98252.56
2022-09-09T02:20:18.303Z,98267.53
2022-09-09T02:22:50.532Z,98219.81
2022-09-09T02:25:21.904Z,98225.13
2022-09-09T02:27:53.165Z,98175.84
2022-09-09T02:30:21.702Z,98155.53
2022-09-09T02:32:53.062Z,98138.03
2022-09-09T02:35:27.514Z,98140.97
2022-09-09T02:38:00.244Z,98186.59
2022-09-09T02:40:28.233Z,98169.22
2022-09-09T02:42:57.589Z,98152.28
2022-09-09T02:45:29.554Z,98119.22
2022-09-09T02:48:10.683Z,98096.94
2022-09-09T02:50:48.774Z,98078.16
2022-09-09T02:53:20.492Z,98092.81
2022-09-09T02:55:50.785Z,98028.53
2022-09-09T02:58:21.094Z,98013.03
2022-09-09T03:00:52.242Z,97991.75
2022-09-09T03:03:20.845Z,97983.63
2022-09-09T03:05:50.200Z,97975.03
2022-09-09T03:08:19.219Z,97599.38
2022-09-09T03:10:47.141Z,97277.97
2022-09-09T03:13:16.315Z,97072.84
2022-09-09T03:15:46.149Z,96919.34
2022-09-09T03:18:14.194Z,96924.97
2022-09-09T03:20:43.183Z,97034.09
2022-09-09T03:23:15.605Z,97163.00
2022-09-09T03:25:49.344Z,97211.75
2022-09-09T03:28:17.569Z,97266.31
2022-09-09T03:30:46.977Z,97334.03
2022-09-09T03:33:16.054Z,97350.00
2022-09-09T03:35:49.851Z,97392.75
2022-09-09T03:38:18.020Z,97456.63
2022-09-09T03:40:52.261Z,97451.97
2022-09-09T03:43:20.866Z,97468.44
2022-09-09T03:45:50.488Z,97441.16
2022-09-09T03:48:19.820Z,97462.94
2022-09-09T03:50:47.761Z,97529.31
2022-09-09T03:53:18.533Z,97546.59
2022-09-09T03:55:47.099Z,97549.28
2022-09-09T03:58:15.813Z,97543.09
2022-09-09T04:00:46.076Z,97559.09
2022-09-09T04:03:15.394Z,97568.91
2022-09-09T04:05:43.423Z,97582.72
2022-09-09T04:08:12.486Z,97582.72
2022-09-09T04:10:40.496Z,97593.84
2022-09-09T04:13:08.336Z,97617.28
2022-09-09T04:15:36.649Z,97607.63
2022-09-09T04:18:04.719Z,97612.09
2022-09-09T04:20:34.696Z,97632.94
2022-09-09T04:23:02.894Z,97626.44
2022-09-09T04:25:30.805Z,97604.91
2022-09-09T04:27:59.386Z,97610.66
2022-09-09T04:30:28.415Z,97598.97
2022-09-09T04:32:56.358Z,97597.50
2022-09-09T04:35:24.253Z,97568.69
2022-09-09T04:37:53.663Z,97576.69
2022-09-09T04:40:23.205Z,97594.47
2022-09-09T04:42:51.332Z,97604.44
2022-09-09T04:45:19.495Z,97597.28
2022-09-09T04:47:47.469Z,97596.28
2022-09-09T04:50:15.677Z,97582.31
2022-09-09T04:52:43.808Z,97571.00
2022-09-09T04:55:14.670Z,97572.50
2022-09-09T04:57:42.928Z,97556.81
2022-09-09T05:00:12.178Z,97560.34
2022-09-09T05:02:40.573Z,97548.19
2022-09-09T05:05:09.096Z,97539.22
2022-09-09T05:07:37.035Z,97511.25
2022-09-09T05:10:07.000Z,97508.44
2022-09-09T05:12:36.451Z,97512.78
2022-09-09T05:15:04.752Z,97515.06
2022-09-09T05:17:32.807Z,97490.81
2022-09-09T05:20:01.021Z,97489.00
2022-09-09T05:22:28.836Z,97492.47
2022-09-09T05:24:56.724Z,97484.81
2022-09-09T05:27:24.660Z,97455.72
2022-09-09T05:29:53.781Z,97381.41
2022-09-09T05:32:21.690Z,97302.25
2022-09-09T05:34:49.588Z,97212.28
2022-09-09T05:37:17.673Z,97091.59
2022-09-09T05:39:45.613Z,96952.75
2022-09-09T05:42:13.646Z,96813.34
2022-09-09T05:44:43.066Z,96680.59
2022-09-09T05:47:12.682Z,96379.19
2022-09-09T05:49:40.970Z,96297.44
2022-09-09T05:52:08.881Z,96293.56
2022-09-09T05:54:38.487Z,96533.97
2022-09-09T05:57:07.011Z,96731.25
2022-09-09T05:59:34.858Z,96857.00
2022-09-09T06:02:02.753Z,96933.84
2022-09-09T06:04:33.172Z,96977.69
2022-09-09T06:07:01.115Z,97031.22
2022-09-09T06:09:28.980Z,97081.44
2022-09-09T06:11:56.686Z,97115.00
2022-09-09T06:14:25.205Z,97136.59
2022-09-09T06:16:53.446Z,97157.59
2022-09-09T06:19:21.677Z,97185.19
2022-09-09T06:21:51.319Z,97211.78
2022-09-09T06:24:20.506Z,97208.44
2022-09-09T06:26:48.353Z,97197.63
2022-09-09T06:29:16.219Z,97193.38
2022-09-09T06:31:44.326Z,97226.72
2022-09-09T06:34:12.383Z,97198.88
2022-09-09T06:36:41.265Z,97223.84
2022-09-09T06:39:14.696Z,97247.00
2022-09-09T06:41:43.745Z,97239.31
2022-09-09T06:44:12.781Z,97258.13
2022-09-09T06:46:41.624Z,97269.28
2022-09-09T06:49:10.718Z,97272.09
2022-09-09T06:51:43.731Z,97273.75
2022-09-09T06:54:14.172Z,97292.06
2022-09-09T06:56:44.128Z,97299.91
2022-09-09T06:59:13.179Z,97283.91
2022-09-09T07:01:42.932Z,97271.53
2022-09-09T07:04:12.053Z,97287.56
2022-09-09T07:06:44.177Z,97292.16
2022-09-09T07:09:15.999Z,97312.38
2022-09-09T07:11:45.653Z,97313.31
2022-09-09T07:14:15.185Z,97303.78
2022-09-09T07:16:43.475Z,97316.72
2022-09-09T07:19:12.119Z,97304.13
2022-09-09T07:21:41.309Z,97341.28
2022-09-09T07:24:11.227Z,97364.56
2022-09-09T07:26:41.453Z,97395.56
2022-09-09T07:29:09.835Z,97437.91
2022-09-09T07:31:39.214Z,97461.56
2022-09-09T07:34:08.188Z,97505.56
2022-09-09T07:36:38.881Z,97507.13
2022-09-09T07:39:08.434Z,97579.59
2022-09-09T07:41:39.077Z,97605.06
2022-09-09T07:44:11.917Z,97597.13
2022-09-09T07:46:42.169Z,97553.13
2022-09-09T07:49:11.728Z,97511.38
2022-09-09T07:51:41.690Z,97515.44
2022-09-09T07:54:12.159Z,97609.28
2022-09-09T07:56:40.691Z,97723.34
2022-09-09T07:59:11.409Z,97877.63
2022-09-09T08:01:41.320Z,98017.81
2022-09-09T08:04:10.758Z,98123.66
2022-09-09T08:06:40.354Z,98239.00
2022-09-09T08:09:09.818Z,98331.13
2022-09-09T08:11:39.173Z,98520.44
2022-09-09T08:14:09.702Z,98758.81
2022-09-09T08:16:39.725Z,98910.06
2022-09-09T08:19:08.598Z,99074.94
2022-09-09T08:21:39.921Z,99259.38
2022-09-09T08:24:09.289Z,99424.03
2022-09-09T08:26:39.236Z,99596.56
2022-09-09T08:29:11.236Z,99697.97
2022-09-09T08:31:41.093Z,99816.41
2022-09-09T08:34:10.119Z,99902.09
2022-09-09T08:36:40.242Z,99992.91
2022-09-09T08:39:09.981Z,100024.75
2022-09-09T08:42:06.304Z,100062.91
2022-09-09T08:44:49.009Z,100121.63
2022-09-09T08:47:33.746Z,100160.63
2022-09-09T08:50:18.675Z,100295.03
2022-09-09T08:52:56.197Z,100637.63
2022-09-09T08:55:30.958Z,101001.44
2022-09-09T08:58:02.056Z,100478.22
2022-09-09T09:00:42.490Z,100479.69
2022-09-09T09:03:21.309Z,100468.16
2022-09-09T09:05:59.074Z,100444.72
2022-09-09T09:08:31.700Z,100380.28
2022-09-09T09:11:01.451Z,100316.00
2022-09-09T09:13:43.874Z,100273.13
2022-09-09T09:16:21.967Z,100435.09
2022-09-09T09:18:50.413Z,100614.06
2022-09-09T09:21:25.419Z,100661.78
2022-09-09T09:23:58.659Z,100652.91
2022-09-09T09:26:31.346Z,100651.22
2022-09-09T09:29:01.703Z,100641.78
2022-09-09T09:31:31.056Z,100674.97
2022-09-09T09:34:00.357Z,100676.44
2022-09-09T09:36:40.038Z,100668.63
2022-09-09T09:41:57.452Z,100654.47
2022-09-09T09:44:28.611Z,100632.19
2022-09-09T09:47:11.845Z,100597.06
2022-09-09T09:49:40.335Z,100611.91
2022-09-09T09:52:09.252Z,100637.41
2022-09-09T09:54:42.601Z,100623.97
2022-09-09T09:57:13.320Z,100632.47
2022-09-09T09:59:41.532Z,100629.59
2022-09-09T10:02:25.655Z,100643.63
2022-09-09T10:05:03.706Z,100653.38
2022-09-09T10:07:31.682Z,100628.72
2022-09-09T10:10:00.188Z,100628.38
2022-09-09T10:12:43.397Z,100619.09
2022-09-09T10:15:28.410Z,100640.59
2022-09-09T10:18:08.113Z,100606.25
2022-09-09T10:20:45.846Z,100635.03
2022-09-09T10:23:28.106Z,100489.28
2022-09-09T10:26:10.970Z,100485.38
2022-09-09T10:29:05.930Z,100555.88
2022-09-09T10:31:45.113Z,100472.19
2022-09-09T10:35:55.708Z,100387.22
2022-09-09T10:38:15.893Z,100272.84
2022-09-09T10:41:02.915Z,100292.13
2022-09-09T10:44:00.257Z,100473.63
2022-09-09T10:46:39.638Z,100561.19
2022-09-09T10:49:22.983Z,100592.66
2022-09-09T10:52:00.172Z,100562.91
2022-09-09T10:54:43.120Z,100367.69
2022-09-09T10:57:15.932Z,100233.22
2022-09-09T10:59:50.656Z,100058.94
2022-09-09T11:02:25.038Z,100146.47
2022-09-09T11:04:57.002Z,100205.81
2022-09-09T11:07:30.945Z,100301.59
2022-09-09T11:10:07.526Z,100332.84
2022-09-09T11:12:38.949Z,100297.41
2022-09-09T11:15:09.999Z,100266.06
2022-09-09T11:17:44.290Z,100272.56
2022-09-09T11:20:14.750Z,100282.72
2022-09-09T11:22:50.312Z,100278.69
2022-09-09T11:25:23.813Z,100277.06
2022-09-09T11:28:17.033Z,100290.66
2022-09-09T11:31:00.350Z,100287.34
2022-09-09T11:33:53.959Z,100269.47
2022-09-09T11:36:49.152Z,100271.28
2022-09-09T11:39:44.216Z,100256.72
2022-09-09T11:42:20.762Z,100295.34
2022-09-09T11:44:49.041Z,100302.72
2022-09-09T11:47:30.715Z,100304.72
2022-09-09T11:50:11.119Z,100298.13
2022-09-09T11:52:43.626Z,100307.28
2022-09-09T11:55:14.389Z,100303.88
2022-09-09T11:57:49.011Z,100274.06
2022-09-09T12:00:39.375Z,100274.91
2022-09-09T12:03:10.210Z,100310.56
2022-09-09T12:05:41.986Z,100289.72
2022-09-09T12:08:13.795Z,100324.56
2022-09-09T12:10:42.519Z,100657.31
2022-09-09T12:13:21.164Z,100607.34
2022-09-09T12:15:53.029Z,100605.22
2022-09-09T12:18:26.316Z,100582.72
2022-09-09T12:21:03.699Z,100590.06
2022-09-09T12:23:43.463Z,100582.97
2022-09-09T12:26:35.420Z,100574.00
2022-09-09T12:29:25.575Z,100577.13
2022-09-09T12:31:59.868Z,100582.44
2022-09-09T12:34:40.552Z,100583.63
2022-09-09T12:37:20.378Z,100499.69
2022-09-09T12:39:54.578Z,100247.78
2022-09-09T12:42:25.849Z,100187.81
2022-09-09T12:44:58.125Z,100176.97
2022-09-09T12:47:36.002Z,100198.09
2022-09-09T12:50:05.329Z,100195.81
2022-09-09T12:52:40.083Z,100191.84
2022-09-09T12:55:10.239Z,100208.88
2022-09-09T12:57:41.446Z,100191.47
2022-09-09T13:00:16.876Z,100129.28
2022-09-09T13:02:51.292Z,100122.97
2022-09-09T13:05:22.721Z,100191.88
2022-09-09T13:07:51.158Z,100141.88
2022-09-09T13:10:36.638Z,100151.28
2022-09-09T13:13:17.560Z,100175.69
2022-09-09T13:15:55.087Z,100202.34
2022-09-09T13:18:26.621Z,100106.53
2022-09-09T13:20:59.844Z,100039.25
2022-09-09T13:23:30.520Z,100115.75
2022-09-09T13:26:03.534Z,100173.31
2022-09-09T13:28:34.296Z,100171.91
2022-09-09T13:31:06.170Z,100217.31
2022-09-09T13:33:38.739Z,100257.69
2022-09-09T13:36:09.329Z,100266.91
2022-09-09T13:38:39.278Z,100234.91
2022-09-09T13:41:09.075Z,100244.22
2022-09-09T13:43:39.751Z,100234.72
2022-09-09T13:46:29.329Z,100209.59
2022-09-09T13:48:58.378Z,100134.75
2022-09-09T13:51:38.025Z,100079.91
2022-09-09T13:54:07.594Z,100085.50
2022-09-09T13:56:36.241Z,100139.72
2022-09-09T13:59:05.918Z,100244.31
2022-09-09T14:01:36.189Z,100219.28
2022-09-09T14:04:04.689Z,100203.78
2022-09-09T14:06:33.289Z,100162.34
2022-09-09T14:09:01.757Z,100096.47
2022-09-09T14:11:30.213Z,100113.78
2022-09-09T14:13:58.390Z,100169.66
2022-09-09T14:17:32.617Z,100271.03
2022-09-09T14:20:22.050Z,100464.97
2022-09-09T14:23:41.844Z,100395.69
2022-09-09T14:26:30.720Z,100420.78
2022-09-09T14:28:59.460Z,100423.72
2022-09-09T14:31:27.917Z,100297.50
2022-09-09T14:34:16.165Z,100078.19
2022-09-09T14:36:48.278Z,100083.78
2022-09-09T14:39:22.316Z,100392.00
2022-09-09T14:41:51.900Z,100385.41
2022-09-09T14:44:22.426Z,100385.88
2022-09-09T14:46:58.232Z,100327.47
2022-09-09T14:49:26.306Z,100323.22
2022-09-09T14:51:58.432Z,100312.28
2022-09-09T14:57:18.675Z,100272.41
2022-09-09T14:59:54.878Z,100213.81
2022-09-09T15:02:31.967Z,100191.38
2022-09-09T15:07:54.759Z,100245.34
2022-09-09T15:10:24.220Z,100328.47
2022-09-09T15:13:09.067Z,100290.88
2022-09-09T15:15:38.942Z,100209.88
2022-09-09T15:18:15.011Z,100160.53
2022-09-09T15:20:49.269Z,100104.81
2022-09-09T15:23:36.562Z,100174.09
2022-09-09T15:26:06.773Z,100246.19
2022-09-09T15:28:39.149Z,100265.72
2022-09-09T15:31:15.548Z,100267.88
2022-09-09T15:34:01.684Z,100337.06
2022-09-09T15:36:33.053Z,100378.97
2022-09-09T15:39:03.819Z,100359.56
2022-09-09T15:41:32.759Z,100304.28
2022-09-09T15:44:01.588Z,100312.47
2022-09-09T15:46:33.504Z,100282.09
2022-09-09T15:49:07.531Z,100227.59
2022-09-09T15:51:42.808Z,100055.19
2022-09-09T15:54:18.026Z,99956.34
2022-09-09T15:56:47.622Z,100041.13
2022-09-09T15:59:15.900Z,100143.25
2022-09-09T16:01:45.480Z,100181.44
2022-09-09T16:04:13.960Z,100192.31
2022-09-09T16:06:49.375Z,100174.75
2022-09-09T16:09:18.992Z,100122.78
2022-09-09T16:11:47.863Z,100106.34
2022-09-09T16:14:16.661Z,100086.84
2022-09-09T16:16:45.142Z,100105.88
2022-09-09T16:19:15.711Z,100112.00
2022-09-09T16:21:45.948Z,100117.66
2022-09-09T16:24:16.163Z,100211.66
2022-09-09T16:26:47.514Z,100417.84
2022-09-09T16:29:16.789Z,100407.06
2022-09-09T16:31:52.772Z,100406.94
2022-09-09T16:37:05.232Z,100397.66
2022-09-09T16:39:33.459Z,100409.97
2022-09-09T16:42:04.108Z,100402.25
2022-09-09T16:44:32.061Z,100409.38
2022-09-09T16:47:01.264Z,100405.97
2022-09-09T16:49:29.966Z,100446.38
2022-09-09T16:52:00.690Z,100430.03
2022-09-09T16:54:30.179Z,100425.03
2022-09-09T16:57:01.080Z,100446.97
2022-09-09T16:59:32.683Z,100474.38
2022-09-09T17:02:01.587Z,100467.66
2022-09-09T17:04:31.994Z,100472.34
2022-09-09T17:07:01.510Z,100467.84
2022-09-09T17:09:32.397Z,100472.25
2022-09-09T17:12:00.975Z,100467.75
2022-09-09T17:14:32.157Z,100459.84
2022-09-09T17:17:13.948Z,100469.13
2022-09-09T17:19:51.577Z,100462.63
2022-09-09T17:22:20.873Z,100455.44
2022-09-09T17:24:49.406Z,100437.94
2022-09-09T17:27:19.709Z,100450.22
2022-09-09T17:29:49.055Z,100443.88
2022-09-09T17:32:16.942Z,100437.75
2022-09-09T17:34:46.892Z,100439.22
2022-09-09T17:37:15.090Z,100425.97
2022-09-09T17:39:43.018Z,100435.84
2022-09-09T17:42:11.295Z,100429.75
2022-09-09T17:44:39.919Z,100435.09
2022-09-09T17:47:09.394Z,100434.81
2022-09-09T17:49:37.604Z,100428.19
2022-09-09T17:52:05.988Z,100431.94
2022-09-09T17:54:34.813Z,100449.22
2022-09-09T17:57:04.230Z,100450.94
2022-09-09T17:59:32.316Z,100431.56
2022-09-09T18:02:00.728Z,100445.69
2022-09-09T18:04:30.264Z,100460.91
2022-09-09T18:06:58.324Z,100453.31
2022-09-09T18:09:27.675Z,100458.56
2022-09-09T18:11:57.592Z,100460.06
2022-09-09T18:14:27.993Z,100468.09
2022-09-09T18:16:58.818Z,100461.13
2022-09-09T18:19:32.189Z,100444.88
2022-09-09T18:22:02.706Z,100453.47
2022-09-09T18:24:31.196Z,100474.56
2022-09-09T18:26:59.130Z,100463.44
2022-09-09T18:29:27.545Z,100477.56
2022-09-09T18:31:57.453Z,100458.16
2022-09-09T18:34:30.282Z,100463.84
2022-09-09T18:37:02.543Z,100470.34
2022-09-09T18:39:39.358Z,100499.78
2022-09-09T18:42:13.581Z,100484.16
2022-09-09T18:44:45.719Z,100453.44
2022-09-09T18:47:13.864Z,100462.53
2022-09-09T18:49:42.913Z,100438.78
2022-09-09T18:52:13.139Z,100458.03
2022-09-09T18:54:46.049Z,100459.56
2022-09-09T18:57:19.717Z,100416.75
2022-09-09T18:59:49.532Z,100447.56
2022-09-09T19:02:20.968Z,100428.50
2022-09-09T19:04:51.378Z,100443.72
2022-09-09T19:07:22.622Z,100439.38
2022-09-09T19:09:54.533Z,100437.06
2022-09-09T19:12:22.332Z,100431.28
2022-09-09T19:14:51.025Z,100441.50
2022-09-09T19:17:18.837Z,100441.09
2022-09-09T19:19:48.177Z,100437.63
2022-09-09T19:22:16.099Z,100439.09
2022-09-09T19:24:48.242Z,100441.88
2022-09-09T19:27:17.652Z,100423.31
2022-09-09T19:29:45.846Z,100437.38
2022-09-09T19:35:02.000Z,100436.72
2022-09-09T19:37:32.257Z,100429.59
2022-09-09T19:40:10.857Z,100421.97
2022-09-09T19:42:44.266Z,100429.66
2022-09-09T19:45:19.859Z,100435.34
2022-09-09T19:47:50.161Z,100422.44
2022-09-09T19:50:19.436Z,100434.03
2022-09-09T19:52:52.827Z,100422.38
2022-09-09T19:55:28.657Z,100417.28
2022-09-09T19:58:00.443Z,100423.44
2022-09-09T20:00:28.619Z,100434.97
2022-09-09T20:03:18.280Z,100420.13
2022-09-09T20:05:49.548Z,100450.69
2022-09-09T20:08:18.268Z,100428.78
2022-09-09T20:10:55.746Z,100427.84
2022-09-09T20:13:23.807Z,100455.66
2022-09-09T20:16:00.574Z,100443.06
2022-09-09T20:18:31.313Z,100466.38
2022-09-09T20:21:00.984Z,100439.06
2022-09-09T20:23:32.510Z,100434.88
2022-09-09T20:26:07.224Z,100428.69
2022-09-09T20:28:45.227Z,100436.53
2022-09-09T20:31:15.581Z,100429.19
2022-09-09T20:33:46.419Z,100420.22
2022-09-09T20:36:23.697Z,100450.06
2022-09-09T20:38:59.380Z,100431.09
2022-09-09T20:41:36.380Z,100421.38
2022-09-09T20:44:11.501Z,100423.09
2022-09-09T20:46:44.052Z,100425.94
2022-09-09T20:49:13.236Z,100438.34
2022-09-09T20:51:42.006Z,100440.59
2022-09-09T20:54:14.095Z,100437.19
2022-09-09T20:56:45.920Z,100448.78
2022-09-09T20:59:15.783Z,100440.41
2022-09-09T21:01:44.299Z,100430.13
2022-09-09T21:04:13.219Z,100454.13
2022-09-09T21:06:41.477Z,100443.56
2022-09-09T21:09:09.816Z,100443.28
2022-09-09T21:11:38.872Z,100448.06
2022-09-09T21:14:10.010Z,100431.00
2022-09-09T21:16:39.313Z,100435.09
2022-09-09T21:19:09.018Z,100440.44
2022-09-09T21:21:45.475Z,100429.94
2022-09-09T21:24:14.037Z,100466.72
2022-09-09T21:26:42.262Z,100449.75
2022-09-09T21:29:14.736Z,100451.09
2022-09-09T21:31:45.482Z,100461.75
2022-09-09T21:34:15.484Z,100437.19
2022-09-09T21:36:52.072Z,100463.56
2022-09-09T21:39:20.566Z,100456.03
2022-09-09T21:41:59.148Z,100458.53
2022-09-09T21:44:43.703Z,100424.25
2022-09-09T21:47:18.485Z,100440.06
2022-09-09T21:49:46.911Z,100455.19
2022-09-09T21:52:22.439Z,100429.28
2022-09-09T21:54:54.408Z,100465.66
2022-09-09T21:57:25.111Z,100438.03
2022-09-09T21:59:55.030Z,100463.09
2022-09-09T22:02:35.748Z,100471.06
2022-09-09T22:05:04.217Z,100474.69
2022-09-09T22:07:33.285Z,100454.13
2022-09-09T22:10:01.799Z,100453.50
2022-09-09T22:12:30.283Z,100475.06
2022-09-09T22:15:00.203Z,100457.88
2022-09-09T22:17:28.776Z,100456.53
2022-09-09T22:20:00.638Z,100454.06
2022-09-09T22:22:28.712Z,100466.81
2022-09-09T22:24:56.900Z,100460.41
2022-09-09T22:27:25.185Z,100478.47
2022-09-09T22:29:53.404Z,100484.44
2022-09-09T22:32:23.353Z,100469.25
2022-09-09T22:34:52.424Z,100487.31
2022-09-09T22:37:23.656Z,100477.44
2022-09-09T22:40:00.640Z,100484.47
2022-09-09T22:42:36.433Z,100477.47
2022-09-09T22:45:09.044Z,100498.66
2022-09-09T22:47:43.030Z,100465.97
2022-09-09T22:50:13.948Z,100485.03
2022-09-09T22:52:42.948Z,100480.22
2022-09-09T22:55:11.319Z,100487.63
2022-09-09T22:57:39.475Z,100496.03
2022-09-09T23:00:09.811Z,100491.75
2022-09-09T23:02:41.106Z,100501.59
2022-09-09T23:05:09.854Z,100508.97
2022-09-09T23:07:38.561Z,100496.09
2022-09-09T23:10:07.579Z,100513.63
2022-09-09T23:12:35.689Z,100498.91
2022-09-09T23:15:10.154Z,100497.16
2022-09-09T23:17:38.608Z,100485.69
2022-09-09T23:20:10.639Z,100495.06
2022-09-09T23:22:44.455Z,100489.91
2022-09-09T23:25:12.995Z,100490.75
2022-09-09T23:27:41.660Z,100519.72
2022-09-09T23:30:11.639Z,100493.94
2022-09-09T23:32:40.808Z,100520.03
2022-09-09T23:35:11.143Z,100508.25
2022-09-09T23:37:39.195Z,100504.47
2022-09-09T23:40:10.847Z,100508.72
2022-09-09T23:42:38.987Z,100514.44
2022-09-09T23:45:08.981Z,100510.34
2022-09-09T23:47:37.289Z,100506.81
2022-09-09T23:50:07.856Z,100517.31
2022-09-09T23:52:42.891Z,100522.97
2022-09-09T23:55:17.130Z,100501.06
2022-09-09T23:57:45.513Z,100511.38
